Time;durP1;ratioP1;P1;durP2;ratioP2;P2;SDS_P1;SDS_P2;PMS_P1;PMS_P2;Temp;Humidity;BMP_temperature;BMP_pressure;BME280_temperature;BME280_humidity;BME280_pressure;Samples;Min_cycle;Max_cycle;Signal;HPM_P1;HPM_P2
2022/09/16 00:01:41;;;;;;;1.30;0.52;;;11.00;99.90;;;;;;5031841;28;20042;-85
2022/09/16 00:04:08;;;;;;;2.28;0.52;;;11.10;99.90;;;;;;5031676;28;20084;-85
2022/09/16 00:06:34;;;;;;;2.00;0.60;;;11.10;99.90;;;;;;5031874;28;20045;-85
2022/09/16 00:09:01;;;;;;;2.00;0.50;;;11.10;99.90;;;;;;5034119;28;20045;-85
2022/09/16 00:11:32;;;;;;;4.78;0.90;;;11.10;99.90;;;;;;5051285;28;20493;-85
2022/09/16 00:13:59;;;;;;;4.75;0.73;;;11.10;99.90;;;;;;5051457;28;20049;-85
2022/09/16 00:16:28;;;;;;;2.72;0.70;;;11.00;99.90;;;;;;5083974;28;20434;-85
2022/09/16 00:18:56;;;;;;;4.55;0.93;;;11.00;99.90;;;;;;5084343;28;20045;-85
2022/09/16 00:21:24;;;;;;;0.82;0.50;;;11.00;99.90;;;;;;5051232;28;20501;-84
2022/09/16 00:23:51;;;;;;;1.02;0.73;;;11.00;99.90;;;;;;5067591;28;20103;-85
2022/09/16 00:26:18;;;;;;;3.00;0.88;;;11.00;99.90;;;;;;5050968;28;20053;-85
2022/09/16 00:28:48;;;;;;;6.25;1.00;;;10.90;99.90;;;;;;5051002;28;20052;-85
2022/09/16 00:31:16;;;;;;;3.80;0.70;;;10.90;99.90;;;;;;5067295;28;20080;-84
2022/09/16 00:33:42;;;;;;;1.85;0.68;;;10.90;99.90;;;;;;5050967;28;20033;-85
2022/09/16 00:36:11;;;;;;;0.85;0.52;;;10.80;99.90;;;;;;5034356;28;20474;-85
2022/09/16 00:38:38;;;;;;;2.85;0.70;;;10.80;99.90;;;;;;5067418;28;20532;-84
2022/09/16 00:41:06;;;;;;;12.27;2.05;;;10.80;99.90;;;;;;5067811;28;20052;-84
2022/09/16 00:43:58;;;;;;;3.10;0.68;;;10.80;99.90;;;;;;5067510;28;20049;-85
2022/09/16 00:46:29;;;;;;;3.08;0.65;;;10.80;99.90;;;;;;5050490;28;20052;-84
2022/09/16 00:48:59;;;;;;;6.47;0.60;;;10.80;99.90;;;;;;5067244;28;20042;-84
2022/09/16 00:51:27;;;;;;;2.85;0.57;;;10.80;99.90;;;;;;5066717;28;20041;-85
2022/09/16 00:54:01;;;;;;;7.82;1.00;;;10.80;99.90;;;;;;5034735;28;20447;-85
2022/09/16 00:56:30;;;;;;;3.10;0.70;;;10.80;99.90;;;;;;5067283;28;20045;-84
2022/09/16 00:59:02;;;;;;;4.32;0.60;;;10.90;99.90;;;;;;5050680;28;20540;-85
2022/09/16 01:01:29;;;;;;;3.05;0.70;;;11.10;99.90;;;;;;5083237;28;20045;-84
2022/09/16 01:04:02;;;;;;;3.15;0.90;;;10.80;99.90;;;;;;5066878;28;20405;-84
2022/09/16 01:06:31;;;;;;;0.90;0.50;;;10.80;99.90;;;;;;5050361;28;20045;-84
2022/09/16 01:08:57;;;;;;;3.97;0.63;;;10.80;99.90;;;;;;5050360;28;20104;-85
2022/09/16 01:11:24;;;;;;;3.00;0.50;;;10.80;99.90;;;;;;5049717;28;20053;-85
2022/09/16 01:13:52;;;;;;;3.05;0.60;;;10.80;99.90;;;;;;5050531;28;20049;-84
2022/09/16 01:16:24;;;;;;;3.20;0.50;;;10.80;99.90;;;;;;5034055;28;20046;-85
2022/09/16 01:19:06;;;;;;;3.45;0.80;;;10.80;99.90;;;;;;5066732;28;20053;-85
2022/09/16 01:21:55;;;;;;;1.20;0.50;;;10.80;99.90;;;;;;5049693;28;20045;-85
2022/09/16 01:24:43;;;;;;;2.35;0.63;;;10.70;99.90;;;;;;5049235;28;20544;-85
2022/09/16 01:27:57;;;;;;;1.08;0.45;;;10.70;99.90;;;;;;5049991;28;20052;-85
2022/09/16 01:30:27;;;;;;;1.63;0.73;;;10.70;99.90;;;;;;5052744;28;20071;-85
2022/09/16 01:33:09;;;;;;;1.30;0.50;;;10.60;99.90;;;;;;5050117;28;20171;-85
2022/09/16 01:36:05;;;;;;;8.63;0.98;;;10.70;99.90;;;;;;5049773;28;20037;-85
2022/09/16 01:38:37;;;;;;;3.47;0.82;;;10.70;99.90;;;;;;5049307;28;20100;-85
2022/09/16 01:41:34;;;;;;;7.30;0.80;;;10.60;99.90;;;;;;5050032;28;20523;-85
2022/09/16 01:44:19;;;;;;;4.50;0.90;;;10.60;99.90;;;;;;5049918;28;20053;-85
2022/09/16 01:47:17;;;;;;;3.03;0.80;;;10.70;99.90;;;;;;5051900;28;20034;-85
2022/09/16 01:49:59;;;;;;;5.70;0.50;;;10.70;99.90;;;;;;5042982;28;20046;-85
2022/09/16 01:52:40;;;;;;;2.45;0.57;;;10.70;99.90;;;;;;5032962;28;20037;-85
2022/09/16 01:55:13;;;;;;;2.88;0.77;;;10.70;99.90;;;;;;5049803;28;20087;-85
2022/09/16 01:58:16;;;;;;;5.28;0.50;;;10.70;99.90;;;;;;5049782;28;20088;-85
2022/09/16 02:00:45;;;;;;;1.85;0.60;;;10.70;99.90;;;;;;4981730;28;20078;-85
2022/09/16 02:03:17;;;;;;;5.57;0.80;;;10.70;99.90;;;;;;5066026;28;20037;-85
2022/09/16 02:05:58;;;;;;;0.88;0.60;;;10.60;99.90;;;;;;5049475;28;20037;-85
2022/09/16 02:08:34;;;;;;;4.60;0.82;;;10.70;99.90;;;;;;5049218;28;20099;-85
2022/09/16 02:11:05;;;;;;;3.45;0.80;;;10.60;99.90;;;;;;5049244;28;20757;-85
2022/09/16 02:13:37;;;;;;;1.27;0.60;;;10.60;99.90;;;;;;5065201;28;20418;-85
2022/09/16 02:16:09;;;;;;;1.52;0.60;;;10.60;99.90;;;;;;5049131;28;20559;-84
2022/09/16 02:18:40;;;;;;;0.65;0.40;;;10.60;99.90;;;;;;5065472;28;20045;-85
2022/09/16 02:21:13;;;;;;;2.67;0.50;;;10.60;99.90;;;;;;5081819;28;20390;-84
2022/09/16 02:23:45;;;;;;;2.08;0.55;;;10.50;99.90;;;;;;5049146;28;20124;-84
2022/09/16 02:26:15;;;;;;;1.40;0.68;;;10.50;99.90;;;;;;5049292;28;20041;-84
2022/09/16 02:28:46;;;;;;;2.67;0.50;;;10.50;99.90;;;;;;5065260;28;20045;-84
2022/09/16 02:31:14;;;;;;;3.08;0.60;;;10.50;99.90;;;;;;5065550;28;20505;-84
2022/09/16 02:33:46;;;;;;;5.35;0.88;;;10.50;99.90;;;;;;5049314;28;20049;-84
2022/09/16 02:36:20;;;;;;;5.53;0.60;;;10.50;99.90;;;;;;5049241;28;20049;-84
2022/09/16 02:38:54;;;;;;;6.13;0.68;;;10.60;99.90;;;;;;5049179;28;20049;-84
2022/09/16 02:41:22;;;;;;;3.00;0.60;;;10.60;99.90;;;;;;5048863;28;20045;-84
2022/09/16 02:43:49;;;;;;;1.17;0.60;;;10.60;99.90;;;;;;5049183;28;20041;-84
2022/09/16 02:46:32;;;;;;;0.85;0.50;;;10.50;99.90;;;;;;5048988;28;20498;-84
2022/09/16 02:49:38;;;;;;;1.35;0.40;;;10.50;99.90;;;;;;5049592;28;20044;-84
2022/09/16 02:52:16;;;;;;;3.78;0.65;;;10.50;99.90;;;;;;5049378;28;20040;-84
2022/09/16 02:55:16;;;;;;;1.75;0.55;;;10.40;99.90;;;;;;5081825;28;20120;-84
2022/09/16 02:57:43;;;;;;;1.85;0.60;;;10.40;99.90;;;;;;5065168;28;20045;-84
2022/09/16 03:00:10;;;;;;;5.93;0.65;;;10.40;99.90;;;;;;5049270;28;20581;-84
2022/09/16 03:02:36;;;;;;;3.10;0.90;;;10.30;99.90;;;;;;5028957;28;20040;-83
2022/09/16 03:05:04;;;;;;;3.92;0.50;;;10.30;99.90;;;;;;5029158;28;20084;-84
2022/09/16 03:07:31;;;;;;;2.13;0.60;;;10.30;99.90;;;;;;5028897;28;20048;-83
2022/09/16 03:09:58;;;;;;;2.38;0.70;;;10.30;99.90;;;;;;5045228;28;20405;-84
2022/09/16 03:12:49;;;;;;;5.40;0.70;;;10.30;99.90;;;;;;4996568;28;20103;-84
2022/09/16 03:15:24;;;;;;;4.28;0.60;;;10.30;99.90;;;;;;5045285;28;20038;-84
2022/09/16 03:17:57;;;;;;;;;;;10.30;99.90;;;;;;5045960;28;20037;-84
2022/09/16 03:20:33;;;;;;;1.45;0.50;;;10.40;99.90;;;;;;5062000;28;19924;-84
2022/09/16 03:23:08;;;;;;;1.92;0.60;;;10.40;99.90;;;;;;5061874;28;20038;-84
2022/09/16 03:25:59;;;;;;;0.90;0.55;;;10.40;99.90;;;;;;5045084;28;20508;-84
2022/09/16 03:29:08;;;;;;;2.47;0.60;;;10.40;99.90;;;;;;5045267;28;20046;-84
2022/09/16 03:31:56;;;;;;;1.60;0.70;;;10.40;99.90;;;;;;5061422;28;20117;-84
2022/09/16 03:34:36;;;;;;;1.65;0.70;;;10.40;99.90;;;;;;5047315;28;20046;-84
2022/09/16 03:37:07;;;;;;;2.75;0.98;;;10.40;99.90;;;;;;5065543;28;20045;-84
2022/09/16 03:39:35;;;;;;;1.65;0.68;;;10.40;99.90;;;;;;5048378;28;20125;-84
2022/09/16 03:42:04;;;;;;;0.82;0.65;;;10.30;99.90;;;;;;5032658;28;20129;-84
2022/09/16 03:44:36;;;;;;;2.53;1.00;;;10.30;99.90;;;;;;5031928;28;20418;-84
2022/09/16 03:47:03;;;;;;;4.25;0.60;;;10.30;99.90;;;;;;5048599;28;20050;-84
2022/09/16 03:49:30;;;;;;;5.97;0.65;;;10.30;99.90;;;;;;5031926;28;20402;-84
2022/09/16 03:51:57;;;;;;;1.77;0.60;;;10.30;99.90;;;;;;4999610;28;20034;-84
2022/09/16 03:54:24;;;;;;;1.35;0.50;;;10.30;99.90;;;;;;5048604;28;20037;-84
2022/09/16 03:56:51;;;;;;;5.70;0.98;;;10.30;99.90;;;;;;5035311;28;20049;-84
2022/09/16 03:59:18;;;;;;;1.42;0.45;;;10.30;99.90;;;;;;5035452;28;20044;-84
2022/09/16 04:01:45;;;;;;;4.65;0.70;;;10.20;99.90;;;;;;5051825;28;20096;-84
2022/09/16 04:04:12;;;;;;;3.30;0.57;;;10.20;99.90;;;;;;5068442;28;20044;-84
2022/09/16 04:06:39;;;;;;;3.67;0.80;;;10.20;99.90;;;;;;5051217;28;20041;-83
2022/09/16 04:09:07;;;;;;;2.47;0.40;;;10.10;99.90;;;;;;5035250;28;20124;-84
2022/09/16 04:11:34;;;;;;;3.33;0.88;;;10.10;99.90;;;;;;5051138;28;20486;-84
2022/09/16 04:14:02;;;;;;;4.18;1.05;;;10.10;99.90;;;;;;5035244;28;20052;-84
2022/09/16 04:16:29;;;;;;;2.83;0.65;;;10.10;99.90;;;;;;5052323;28;20088;-84
2022/09/16 04:18:56;;;;;;;5.78;0.70;;;10.10;99.90;;;;;;5051194;28;20034;-84
2022/09/16 04:21:23;;;;;;;6.53;1.13;;;10.30;99.90;;;;;;5051218;28;20449;-84
2022/09/16 04:23:50;;;;;;;1.90;0.57;;;10.00;99.90;;;;;;5051081;28;20045;-84
2022/09/16 04:26:17;;;;;;;1.13;0.60;;;10.10;99.90;;;;;;5034830;28;20120;-84
2022/09/16 04:28:43;;;;;;;4.72;0.73;;;10.10;99.90;;;;;;5050762;28;20041;-84
2022/09/16 04:31:12;;;;;;;6.60;0.77;;;10.10;99.90;;;;;;5051201;28;20110;-84
2022/09/16 04:33:39;;;;;;;1.30;0.70;;;10.00;99.90;;;;;;5050820;28;20029;-84
2022/09/16 04:36:07;;;;;;;1.50;0.50;;;10.00;99.90;;;;;;5051124;28;20041;-84
2022/09/16 04:38:34;;;;;;;4.15;0.63;;;10.00;99.90;;;;;;5051038;28;20052;-84
2022/09/16 04:41:04;;;;;;;3.28;0.60;;;10.00;99.90;;;;;;5067123;28;20417;-84
2022/09/16 04:43:31;;;;;;;4.53;0.63;;;10.00;99.90;;;;;;5051005;28;20131;-84
2022/09/16 04:45:58;;;;;;;1.98;0.60;;;10.20;99.90;;;;;;5050264;28;20156;-84
2022/09/16 04:48:25;;;;;;;4.63;0.90;;;10.00;99.90;;;;;;5034917;28;20370;-84
2022/09/16 04:50:52;;;;;;;6.32;0.70;;;10.00;99.90;;;;;;5083720;28;20774;-84
2022/09/16 04:53:20;;;;;;;5.22;1.00;;;10.00;99.90;;;;;;5050856;28;20480;-84
2022/09/16 04:55:47;;;;;;;3.63;0.82;;;10.30;99.90;;;;;;5034025;28;20073;-84
2022/09/16 04:58:13;;;;;;;7.25;1.58;;;10.00;99.90;;;;;;5066870;28;20813;-84
2022/09/16 05:00:40;;;;;;;2.53;0.80;;;10.40;99.90;;;;;;5049867;28;20175;-84
2022/09/16 05:03:07;;;;;;;4.00;0.75;;;9.90;99.90;;;;;;5050066;28;20549;-84
2022/09/16 05:05:33;;;;;;;5.93;1.05;;;9.90;99.90;;;;;;5033937;28;20124;-84
2022/09/16 05:08:00;;;;;;;1.63;0.40;;;9.80;99.90;;;;;;5030709;28;20104;-84
2022/09/16 05:10:27;;;;;;;2.22;0.55;;;9.80;99.90;;;;;;5017475;28;20131;-84
2022/09/16 05:12:54;;;;;;;4.05;0.93;;;9.80;99.90;;;;;;5016913;28;20076;-83
2022/09/16 05:15:20;;;;;;;6.13;0.77;;;9.80;99.90;;;;;;5014818;28;20064;-84
2022/09/16 05:17:47;;;;;;;8.60;0.88;;;9.70;99.90;;;;;;5028812;28;20030;-84
2022/09/16 05:20:14;;;;;;;1.92;0.63;;;9.70;99.90;;;;;;5023078;28;20057;-84
2022/09/16 05:22:41;;;;;;;8.25;0.95;;;9.80;99.90;;;;;;5033928;28;20033;-83
2022/09/16 05:25:08;;;;;;;3.08;1.83;;;9.80;99.90;;;;;;5028468;28;20035;-84
2022/09/16 05:27:35;;;;;;;2.80;0.57;;;9.80;99.90;;;;;;5025106;28;20046;-84
2022/09/16 05:30:01;;;;;;;2.72;0.50;;;9.80;99.90;;;;;;5024235;28;20103;-84
2022/09/16 05:32:28;;;;;;;6.35;0.73;;;9.80;99.90;;;;;;5033791;28;20132;-84
2022/09/16 05:34:55;;;;;;;1.98;0.65;;;9.80;99.90;;;;;;5027222;28;20036;-84
2022/09/16 05:37:21;;;;;;;2.97;0.50;;;9.90;99.90;;;;;;5039309;28;20552;-84
2022/09/16 05:39:48;;;;;;;4.40;0.75;;;9.90;99.90;;;;;;5036520;28;20552;-84
2022/09/16 05:42:15;;;;;;;3.15;0.80;;;9.80;99.90;;;;;;5023664;28;20140;-84
2022/09/16 05:44:41;;;;;;;5.88;0.93;;;9.90;99.90;;;;;;5006543;28;20042;-84
2022/09/16 05:47:08;;;;;;;3.45;0.73;;;9.80;99.90;;;;;;5019306;28;20045;-84
2022/09/16 05:49:35;;;;;;;4.85;0.80;;;9.80;99.90;;;;;;5047072;28;20124;-84
2022/09/16 05:52:02;;;;;;;2.15;0.60;;;9.80;99.90;;;;;;5030179;28;20038;-84
2022/09/16 05:54:30;;;;;;;2.15;0.60;;;9.90;99.90;;;;;;5020055;28;20048;-84
2022/09/16 05:56:56;;;;;;;4.22;0.73;;;9.90;99.90;;;;;;5023522;28;20076;-84
2022/09/16 05:59:23;;;;;;;4.38;0.70;;;9.90;99.90;;;;;;5025711;28;20519;-84
2022/09/16 06:01:50;;;;;;;4.78;0.75;;;9.90;99.90;;;;;;5024985;28;20041;-84
2022/09/16 06:04:17;;;;;;;5.75;1.00;;;9.90;99.90;;;;;;5041072;28;20051;-84
2022/09/16 06:06:45;;;;;;;3.38;0.90;;;10.00;99.90;;;;;;5016972;28;20397;-84
2022/09/16 06:09:19;;;;;;;9.05;0.88;;;10.00;99.90;;;;;;5048840;28;20041;-84
2022/09/16 06:11:48;;;;;;;3.38;0.70;;;10.10;99.90;;;;;;5049413;28;20143;-84
2022/09/16 06:14:16;;;;;;;7.53;0.70;;;10.20;99.90;;;;;;5030059;28;20041;-84
2022/09/16 06:16:43;;;;;;;8.25;0.85;;;10.20;99.90;;;;;;5013616;28;20045;-84
2022/09/16 06:19:13;;;;;;;5.90;0.90;;;10.30;99.90;;;;;;5040581;28;20052;-84
2022/09/16 06:21:42;;;;;;;7.22;0.70;;;10.20;99.90;;;;;;5034196;28;20480;-84
2022/09/16 06:24:10;;;;;;;2.05;0.70;;;10.30;99.90;;;;;;5050583;28;20580;-84
2022/09/16 06:26:40;;;;;;;3.50;0.70;;;10.40;99.90;;;;;;5069746;28;20404;-85
2022/09/16 06:29:07;;;;;;;4.68;0.88;;;10.40;99.90;;;;;;5081957;28;20038;-84
2022/09/16 06:31:36;;;;;;;8.60;1.00;;;10.40;99.90;;;;;;5045962;28;20413;-84
2022/09/16 06:34:04;;;;;;;1.55;0.60;;;10.40;99.90;;;;;;5038113;28;20730;-84
2022/09/16 06:36:36;;;;;;;2.28;0.60;;;10.40;99.90;;;;;;5049063;28;20037;-84
2022/09/16 06:39:04;;;;;;;2.45;0.60;;;10.30;99.90;;;;;;5065395;28;20045;-84
2022/09/16 06:41:32;;;;;;;9.55;1.10;;;10.40;99.90;;;;;;5035544;28;20049;-85
2022/09/16 06:44:00;;;;;;;7.22;0.95;;;10.40;99.90;;;;;;5050785;28;20041;-84
2022/09/16 06:46:27;;;;;;;3.67;0.80;;;10.40;99.90;;;;;;5074751;28;20053;-84
2022/09/16 06:48:56;;;;;;;3.92;1.05;;;10.40;99.90;;;;;;5068490;28;20498;-84
2022/09/16 06:51:26;;;;;;;6.45;0.80;;;10.50;99.90;;;;;;5056280;28;20044;-83
2022/09/16 06:53:57;;;;;;;6.20;0.70;;;10.50;99.90;;;;;;5080207;28;20034;-82
2022/09/16 06:56:24;;;;;;;4.30;0.82;;;10.50;99.90;;;;;;5065574;28;20041;-83
2022/09/16 06:58:54;;;;;;;3.25;0.95;;;10.40;99.90;;;;;;5032509;28;20052;-82
2022/09/16 07:01:26;;;;;;;6.97;0.88;;;10.40;99.90;;;;;;5032844;28;20049;-82
2022/09/16 07:03:55;;;;;;;4.68;1.05;;;10.50;99.90;;;;;;5040559;28;20052;-82
2022/09/16 07:06:23;;;;;;;3.70;1.00;;;10.50;99.90;;;;;;5038437;28;20046;-83
2022/09/16 07:08:52;;;;;;;6.43;1.10;;;10.60;99.90;;;;;;5031945;28;20494;-83
2022/09/16 07:11:21;;;;;;;4.55;0.80;;;10.60;99.90;;;;;;5032646;28;20042;-84
2022/09/16 07:13:49;;;;;;;2.42;0.60;;;10.60;99.90;;;;;;5049243;28;20053;-83
2022/09/16 07:16:18;;;;;;;4.85;0.82;;;10.70;99.90;;;;;;5032398;28;20077;-83
2022/09/16 07:18:47;;;;;;;6.50;0.93;;;10.80;99.90;;;;;;5032654;28;20081;-83
2022/09/16 07:21:15;;;;;;;7.43;1.10;;;10.80;99.90;;;;;;5016384;28;20077;-82
2022/09/16 07:23:43;;;;;;;5.65;0.68;;;10.90;99.90;;;;;;5068298;28;20072;-82
2022/09/16 07:26:18;;;;;;;5.28;0.90;;;11.00;99.90;;;;;;5071472;28;20517;-82
2022/09/16 07:28:47;;;;;;;4.30;0.75;;;11.10;99.90;;;;;;5040306;28;20034;-82
2022/09/16 07:31:19;;;;;;;4.78;0.80;;;11.10;99.90;;;;;;5051410;28;20029;-82
2022/09/16 07:33:48;;;;;;;6.72;1.05;;;11.30;99.90;;;;;;5047326;28;20651;-82
2022/09/16 07:36:19;;;;;;;10.73;1.15;;;11.40;99.90;;;;;;5066981;28;20114;-82
2022/09/16 07:38:47;;;;;;;4.18;0.82;;;11.50;99.90;;;;;;5050400;28;20041;-82
2022/09/16 07:41:20;;;;;;;3.72;0.98;;;11.60;99.90;;;;;;5037623;28;20410;-82
2022/09/16 07:43:47;;;;;;;9.50;1.00;;;11.70;99.90;;;;;;5045478;28;20087;-82
2022/09/16 07:46:16;;;;;;;4.63;1.00;;;11.80;99.90;;;;;;5051315;28;20452;-83
2022/09/16 07:48:44;;;;;;;5.50;1.45;;;11.90;99.90;;;;;;5085182;28;20053;-81
2022/09/16 07:51:19;;;;;;;8.43;0.93;;;11.90;99.90;;;;;;5084940;28;20094;-80
2022/09/16 07:53:46;;;;;;;5.03;0.80;;;12.00;99.90;;;;;;5052042;28;20037;-80
2022/09/16 07:56:18;;;;;;;5.53;1.40;;;12.10;99.90;;;;;;5035453;28;20041;-80
2022/09/16 07:58:46;;;;;;;3.13;0.80;;;12.20;99.90;;;;;;5051328;28;20444;-80
2022/09/16 08:01:15;;;;;;;10.32;1.25;;;12.40;99.90;;;;;;5084596;28;20044;-80
2022/09/16 08:03:43;;;;;;;7.22;1.05;;;12.60;99.90;;;;;;5051652;28;20045;-80
2022/09/16 08:06:19;;;;;;;10.05;0.80;;;12.70;99.90;;;;;;5051486;28;20038;-80
2022/09/16 08:08:47;;;;;;;5.38;0.60;;;12.60;99.90;;;;;;5035364;28;20069;-80
2022/09/16 08:11:14;;;;;;;4.82;0.75;;;12.60;99.90;;;;;;5051288;28;20045;-80
2022/09/16 08:13:42;;;;;;;3.63;0.60;;;12.30;99.90;;;;;;5052186;28;20048;-79
2022/09/16 08:16:17;;;;;;;6.13;0.75;;;12.20;99.90;;;;;;5067772;28;20115;-80
2022/09/16 08:18:46;;;;;;;1.73;0.65;;;12.00;99.90;;;;;;5050971;28;20037;-80
2022/09/16 08:21:19;;;;;;;4.38;0.57;;;12.00;99.90;;;;;;5050953;28;20061;-80
2022/09/16 08:23:46;;;;;;;4.53;0.70;;;12.00;99.90;;;;;;5068154;28;20049;-80
2022/09/16 08:26:14;;;;;;;5.50;0.70;;;12.10;99.90;;;;;;5083986;28;20456;-80
2022/09/16 08:28:43;;;;;;;4.05;0.77;;;12.20;99.90;;;;;;5051274;28;20044;-80
2022/09/16 08:31:10;;;;;;;8.25;0.88;;;12.20;99.90;;;;;;5050961;28;20041;-80
2022/09/16 08:33:41;;;;;;;7.55;0.93;;;12.40;99.90;;;;;;5051293;28;20087;-80
2022/09/16 08:36:18;;;;;;;6.32;0.98;;;12.60;99.90;;;;;;5084012;28;20045;-80
2022/09/16 08:38:46;;;;;;;5.25;1.15;;;12.70;99.90;;;;;;5050640;28;20052;-82
2022/09/16 08:42:17;;;;;;;12.23;1.55;;;12.90;99.90;;;;;;5050828;28;20523;-81
2022/09/16 08:44:55;;;;;;;5.00;0.95;;;13.10;99.90;;;;;;4950034;29;20518;-81
2022/09/16 08:47:49;;;;;;;9.25;1.25;;;13.20;99.90;;;;;;4990606;28;20498;-79
2022/09/16 08:50:22;;;;;;;10.60;1.00;;;13.40;99.90;;;;;;5042322;28;20050;-80
2022/09/16 08:52:50;;;;;;;7.22;1.45;;;13.50;99.90;;;;;;5047228;28;20111;-80
2022/09/16 08:55:30;;;;;;;7.45;1.00;;;13.60;99.90;;;;;;5030504;28;20038;-80
2022/09/16 08:58:06;;;;;;;6.00;1.35;;;13.70;99.90;;;;;;5063462;28;20201;-81
2022/09/16 09:00:33;;;;;;;3.78;0.63;;;13.80;99.90;;;;;;5063222;28;20042;-79
2022/09/16 09:03:36;;;;;;;6.28;0.77;;;13.90;99.90;;;;;;5047322;28;20042;-80
2022/09/16 09:06:39;;;;;;;5.55;1.40;;;14.00;99.90;;;;;;5030775;28;20046;-79
2022/09/16 09:09:30;;;;;;;4.60;0.60;;;14.10;99.90;;;;;;5046968;28;20073;-79
2022/09/16 09:12:03;;;;;;;6.50;1.05;;;14.30;99.90;;;;;;5063468;28;20100;-79
2022/09/16 09:14:31;;;;;;;5.00;0.70;;;14.50;99.90;;;;;;5066519;28;20056;-79
2022/09/16 09:17:17;;;;;;;5.43;1.02;;;14.70;99.90;;;;;;5050118;28;20409;-79
2022/09/16 09:19:49;;;;;;;5.95;0.80;;;14.80;99.90;;;;;;5049805;28;20049;-80
2022/09/16 09:22:40;;;;;;;7.32;0.90;;;14.80;99.90;;;;;;5066083;28;20045;-80
2022/09/16 09:25:40;;;;;;;6.53;0.95;;;14.60;99.90;;;;;;5049992;28;20033;-80
2022/09/16 09:28:39;;;;;;;8.23;0.93;;;14.40;99.90;;;;;;5013733;28;20457;-79
2022/09/16 09:31:24;;;;;;;5.85;0.80;;;14.50;99.90;;;;;;5053386;28;20042;-80
2022/09/16 09:34:09;;;;;;;5.73;1.03;;;14.60;99.90;;;;;;5061063;28;20041;-79
2022/09/16 09:36:44;;;;;;;6.10;0.85;;;14.70;99.90;;;;;;5049712;28;20288;-80
2022/09/16 09:39:20;;;;;;;;;;;15.00;99.90;;;;;;5050394;28;20397;-80
2022/09/16 09:42:15;;;;;;;4.47;1.13;;;15.00;99.90;;;;;;5049916;28;19963;-80
2022/09/16 09:44:59;;;;;;;5.22;0.80;;;15.10;99.90;;;;;;5049596;28;20041;-80
2022/09/16 09:47:37;;;;;;;5.93;0.90;;;14.90;99.90;;;;;;5049470;28;20045;-82
2022/09/16 09:50:19;;;;;;;5.80;0.90;;;14.70;99.90;;;;;;5050011;28;20033;-82
2022/09/16 09:52:57;;;;;;;2.90;0.90;;;14.40;99.90;;;;;;5049806;28;20069;-83
2022/09/16 09:55:30;;;;;;;4.85;0.80;;;14.30;99.90;;;;;;5049774;28;20038;-84
2022/09/16 09:58:19;;;;;;;7.20;1.02;;;14.30;99.90;;;;;;5053590;28;20041;-78
2022/09/16 10:00:46;;;;;;;4.60;1.00;;;14.50;99.90;;;;;;5049333;28;20037;-78
2022/09/16 10:03:16;;;;;;;5.40;0.77;;;14.60;99.90;;;;;;5049443;28;20045;-78
2022/09/16 10:05:44;;;;;;;13.05;0.80;;;14.90;99.90;;;;;;5048910;28;20041;-78
2022/09/16 10:08:49;;;;;;;3.90;0.60;;;15.10;99.90;;;;;;5049184;28;20109;-79
2022/09/16 10:11:22;;;;;;;5.82;0.93;;;15.40;99.90;;;;;;5005607;28;20035;-78
2022/09/16 10:13:53;;;;;;;2.92;0.70;;;15.60;99.90;;;;;;5039747;28;20117;-78
2022/09/16 10:16:44;;;;;;;4.22;0.85;;;15.60;99.90;;;;;;5049091;28;20045;-78
2022/09/16 10:19:20;;;;;;;5.82;1.20;;;15.70;99.90;;;;;;5049205;28;20509;-78
2022/09/16 10:22:08;;;;;;;3.22;0.80;;;15.70;99.90;;;;;;5049435;28;20055;-77
2022/09/16 10:24:37;;;;;;;1.52;0.40;;;15.60;99.90;;;;;;5048962;28;20041;-78
2022/09/16 10:27:28;;;;;;;1.88;0.68;;;15.60;99.90;;;;;;5048820;28;20037;-78
2022/09/16 10:30:02;;;;;;;2.28;0.47;;;15.60;99.90;;;;;;5037521;28;20132;-78
2022/09/16 10:32:30;;;;;;;3.58;0.70;;;15.60;99.90;;;;;;5048623;28;20084;-78
2022/09/16 10:34:57;;;;;;;2.40;0.70;;;15.60;99.90;;;;;;5032872;28;20413;-78
2022/09/16 10:37:26;;;;;;;2.70;0.70;;;15.60;99.90;;;;;;5032544;28;20045;-79
2022/09/16 10:39:55;;;;;;;5.60;0.98;;;15.80;99.90;;;;;;5048467;28;20447;-78
2022/09/16 10:42:27;;;;;;;5.68;0.93;;;15.90;99.90;;;;;;5049501;28;20120;-78
2022/09/16 10:45:02;;;;;;;6.75;1.10;;;15.90;99.90;;;;;;5052710;28;20041;-78
2022/09/16 10:47:31;;;;;;;5.53;0.98;;;16.00;99.90;;;;;;5052259;28;20463;-78
2022/09/16 10:50:02;;;;;;;3.80;1.05;;;16.30;99.90;;;;;;5069180;28;20096;-78
2022/09/16 10:52:31;;;;;;;6.60;0.73;;;16.40;99.90;;;;;;5069092;28;20520;-78
2022/09/16 10:55:19;;;;;;;4.45;0.55;;;16.40;99.90;;;;;;5069610;28;20064;-78
2022/09/16 10:57:47;;;;;;;4.00;0.68;;;16.20;99.90;;;;;;5078944;28;20131;-77
2022/09/16 11:00:30;;;;;;;3.50;0.90;;;16.00;99.90;;;;;;5085787;28;20135;-78
2022/09/16 11:03:41;;;;;;;3.20;0.52;;;16.20;99.90;;;;;;5052861;28;20037;-78
2022/09/16 11:06:15;;;;;;;5.50;0.80;;;16.30;99.90;;;;;;5032676;28;20050;-78
2022/09/16 11:09:07;;;;;;;4.30;0.82;;;16.40;99.90;;;;;;5052318;28;20086;-79
2022/09/16 11:12:20;;;;;;;6.40;0.80;;;16.50;99.90;;;;;;5048843;28;20057;-78
2022/09/16 11:15:01;;;;;;;4.30;1.00;;;16.30;99.90;;;;;;5042924;28;20095;-80
2022/09/16 11:17:53;;;;;;;3.90;1.02;;;15.40;99.90;;;;;;5043023;28;20041;-80
2022/09/16 11:20:29;;;;;;;8.20;1.55;;;14.80;99.90;;;;;;5062786;28;20045;-79
2022/09/16 11:23:25;;;;;;;2.38;0.63;;;14.70;99.90;;;;;;5052847;28;20057;-79
2022/09/16 11:26:36;;;;;;;4.35;0.60;;;14.70;99.90;;;;;;5073330;28;20049;-79
2022/09/16 11:29:42;;;;;;;7.43;1.75;;;14.80;99.90;;;;;;5042238;28;20041;-79
2022/09/16 11:32:16;;;;;;;4.15;0.70;;;14.80;99.90;;;;;;5038073;28;20057;-80
2022/09/16 11:35:12;;;;;;;6.03;1.02;;;14.80;99.90;;;;;;5051771;28;20095;-78
2022/09/16 11:38:07;;;;;;;5.30;0.73;;;14.80;99.90;;;;;;5052062;28;20052;-80
2022/09/16 11:40:57;;;;;;;2.05;0.70;;;14.40;99.90;;;;;;5067998;28;20386;-79
2022/09/16 11:43:54;;;;;;;2.75;0.50;;;14.20;99.90;;;;;;5070989;28;20049;-79
2022/09/16 11:46:35;;;;;;;8.15;0.73;;;13.90;99.90;;;;;;5044808;28;20041;-79
2022/09/16 11:49:05;;;;;;;4.72;0.70;;;13.80;99.90;;;;;;5043600;28;20462;-79
2022/09/16 11:51:53;;;;;;;7.35;1.33;;;13.90;99.90;;;;;;5043426;28;20065;-79
2022/09/16 11:54:43;;;;;;;7.80;1.00;;;14.20;99.90;;;;;;5033223;28;20033;-79
2022/09/16 11:57:15;;;;;;;3.65;0.70;;;14.70;99.90;;;;;;5051575;28;20470;-79
2022/09/16 11:59:58;;;;;;;4.10;0.93;;;15.10;99.90;;;;;;5062128;28;20047;-79
2022/09/16 12:02:37;;;;;;;8.35;1.35;;;15.40;99.90;;;;;;5039195;28;20108;-80
2022/09/16 12:05:22;;;;;;;6.25;0.82;;;15.60;99.90;;;;;;5056317;28;20427;-81
2022/09/16 12:08:11;;;;;;;7.80;1.02;;;15.80;99.90;;;;;;5031603;28;20042;-81
2022/09/16 12:10:55;;;;;;;6.50;1.20;;;15.90;99.90;;;;;;5050939;28;20172;-80
2022/09/16 12:13:28;;;;;;;7.78;1.33;;;15.90;99.90;;;;;;5051107;28;20402;-80
2022/09/16 12:16:16;;;;;;;5.20;1.00;;;15.90;99.90;;;;;;5051397;28;20045;-81
2022/09/16 12:18:48;;;;;;;7.18;1.38;;;15.90;99.90;;;;;;5051263;28;20045;-81
2022/09/16 12:21:25;;;;;;;4.75;0.93;;;16.00;99.90;;;;;;5084144;28;20044;-81
2022/09/16 12:24:05;;;;;;;4.00;1.15;;;15.80;99.90;;;;;;5051113;28;20106;-81
2022/09/16 12:26:43;;;;;;;6.65;1.13;;;15.80;99.90;;;;;;5047733;28;20126;-80
2022/09/16 12:29:13;;;;;;;4.53;1.00;;;15.70;99.90;;;;;;5046510;28;20090;-80
2022/09/16 12:31:50;;;;;;;2.75;0.65;;;15.70;99.90;;;;;;5050346;28;20510;-80
2022/09/16 12:34:48;;;;;;;9.13;1.05;;;15.70;99.90;;;;;;5049879;28;20049;-80
2022/09/16 12:37:48;;;;;;;7.65;1.60;;;15.60;99.90;;;;;;5041460;28;20444;-80
2022/09/16 12:40:26;;;;;;;10.38;1.88;;;15.50;99.90;;;;;;5050156;28;20037;-81
2022/09/16 12:43:24;;;;;;;8.52;1.65;;;15.40;99.90;;;;;;5030693;28;20053;-82
2022/09/16 12:46:30;;;;;;;7.97;1.27;;;15.50;99.90;;;;;;5030240;28;20037;-81
2022/09/16 12:49:33;;;;;;;7.45;1.10;;;15.50;99.90;;;;;;5073826;28;20041;-81
2022/09/16 12:52:42;;;;;;;7.97;0.90;;;15.60;99.90;;;;;;5043642;28;20529;-82
2022/09/16 12:55:29;;;;;;;6.20;1.15;;;15.60;99.90;;;;;;5010104;28;20120;-80
2022/09/16 12:58:24;;;;;;;5.70;1.10;;;15.60;99.90;;;;;;5063631;28;20080;-79
2022/09/16 13:01:13;;;;;;;5.25;1.15;;;15.60;99.90;;;;;;5030488;28;20514;-80
2022/09/16 13:03:45;;;;;;;8.30;1.25;;;15.60;99.90;;;;;;5065427;28;20184;-80
2022/09/16 13:06:28;;;;;;;12.05;1.45;;;15.40;99.90;;;;;;5049881;28;20045;-79
2022/09/16 13:08:56;;;;;;;6.25;0.95;;;15.20;99.90;;;;;;5049929;28;20560;-80
2022/09/16 13:11:26;;;;;;;6.60;1.00;;;15.10;99.90;;;;;;5050592;28;20037;-79
2022/09/16 13:13:56;;;;;;;9.02;1.02;;;15.00;99.90;;;;;;5050137;28;20128;-79
2022/09/16 13:16:35;;;;;;;6.00;1.02;;;15.00;99.90;;;;;;5066697;28;20564;-79
2022/09/16 13:19:36;;;;;;;4.68;1.17;;;15.00;99.90;;;;;;5049836;28;20056;-79
2022/09/16 13:22:20;;;;;;;5.25;1.30;;;15.10;99.90;;;;;;5049748;28;20497;-80
2022/09/16 13:25:18;;;;;;;5.20;0.90;;;15.20;99.90;;;;;;5049644;28;20049;-80
2022/09/16 13:28:16;;;;;;;4.75;0.70;;;15.40;99.90;;;;;;5066276;28;20052;-80
2022/09/16 13:30:43;;;;;;;3.30;0.52;;;15.60;99.90;;;;;;5056106;28;20053;-80